Time;durP1;ratioP1;P1;durP2;ratioP2;P2;SDS_P1;SDS_P2;PMS_P1;PMS_P2;Temp;Humidity;BMP_temperature;BMP_pressure;BME280_temperature;BME280_humidity;BME280_pressure;Samples;Min_cycle;Max_cycle;Signal;HPM_P1;HPM_P2
2022/03/05 00:01:58;;;;;;;21.20;13.17;;;;;;;;;;4963927;28;20636;-81
2022/03/05 00:04:24;;;;;;;22.83;13.30;;;;;;;;;;4964197;28;20295;-82
2022/03/05 00:06:50;;;;;;;21.83;13.37;;;;;;;;;;4981744;28;20299;-82
2022/03/05 00:09:20;;;;;;;18.13;11.97;;;;;;;;;;4981022;28;20231;-81
2022/03/05 00:11:46;;;;;;;19.83;13.03;;;;;;;;;;4983282;28;20595;-81
2022/03/05 00:14:12;;;;;;;19.23;12.37;;;;;;;;;;4980895;28;20187;-82
2022/03/05 00:16:39;;;;;;;18.13;11.97;;;;;;;;;;4981382;28;20262;-81
2022/03/05 00:19:05;;;;;;;20.83;12.87;;;;;;;;;;4981005;28;20637;-83
2022/03/05 00:21:31;;;;;;;15.27;11.20;;;;;;;;;;4980420;28;20177;-82
2022/03/05 00:23:57;;;;;;;16.37;12.27;;;;;;;;;;4980611;28;20187;-82
2022/03/05 00:26:23;;;;;;;16.70;12.37;;;;;;;;;;4981368;28;20204;-83
2022/03/05 00:28:49;;;;;;;22.00;13.07;;;;;;;;;;4980414;28;20663;-81
2022/03/05 00:31:16;;;;;;;17.30;12.40;;;;;;;;;;4980336;28;20187;-82
2022/03/05 00:33:42;;;;;;;21.27;12.57;;;;;;;;;;4982568;28;20208;-81
2022/03/05 00:36:08;;;;;;;17.90;12.07;;;;;;;;;;4980611;28;20664;-82
2022/03/05 00:38:34;;;;;;;19.17;12.10;;;;;;;;;;4979948;28;20192;-82
2022/03/05 00:41:00;;;;;;;19.73;12.63;;;;;;;;;;4979928;28;20181;-81
2022/03/05 00:43:26;;;;;;;19.30;12.20;;;;;;;;;;4980285;28;20180;-82
2022/03/05 00:45:52;;;;;;;21.13;12.83;;;;;;;;;;4962032;28;20200;-82
2022/03/05 00:48:18;;;;;;;19.47;12.60;;;;;;;;;;4979950;28;20190;-82
2022/03/05 00:50:44;;;;;;;20.83;12.87;;;;;;;;;;4962180;28;20188;-81
2022/03/05 00:53:12;;;;;;;22.17;13.40;;;;;;;;;;4962201;28;20775;-81
2022/03/05 00:55:38;;;;;;;19.73;12.87;;;;;;;;;;4961773;28;20228;-81
2022/03/05 00:58:05;;;;;;;19.97;12.83;;;;;;;;;;4979446;28;20208;-81
2022/03/05 01:00:31;;;;;;;21.17;12.10;;;;;;;;;;4979133;28;20180;-82
2022/03/05 01:02:57;;;;;;;20.80;12.53;;;;;;;;;;4962709;28;20213;-81
2022/03/05 01:05:23;;;;;;;18.30;12.10;;;;;;;;;;4979468;28;20206;-81
2022/03/05 01:07:49;;;;;;;20.57;12.53;;;;;;;;;;4961527;28;20184;-81
2022/03/05 01:10:15;;;;;;;17.90;11.93;;;;;;;;;;4979367;28;20188;-81
2022/03/05 01:12:41;;;;;;;17.33;12.37;;;;;;;;;;4978533;28;20191;-81
2022/03/05 01:15:08;;;;;;;19.27;12.30;;;;;;;;;;4978099;28;20227;-83
2022/03/05 01:17:34;;;;;;;16.93;11.53;;;;;;;;;;4978295;28;20203;-81
2022/03/05 01:20:00;;;;;;;20.27;12.03;;;;;;;;;;4978496;28;20288;-82
2022/03/05 01:22:26;;;;;;;17.50;11.57;;;;;;;;;;4978573;28;20656;-81
2022/03/05 01:24:52;;;;;;;16.13;11.20;;;;;;;;;;4978997;28;20168;-81
2022/03/05 01:27:18;;;;;;;15.00;10.77;;;;;;;;;;4978497;28;20704;-81
2022/03/05 01:29:45;;;;;;;15.17;11.03;;;;;;;;;;4961015;28;20195;-83
2022/03/05 01:32:11;;;;;;;18.70;11.93;;;;;;;;;;4978699;28;20702;-81
2022/03/05 01:34:37;;;;;;;18.37;11.90;;;;;;;;;;4961223;28;20187;-81
2022/03/05 01:37:03;;;;;;;18.47;10.93;;;;;;;;;;4978173;28;20204;-81
2022/03/05 01:39:29;;;;;;;15.70;11.10;;;;;;;;;;4961050;28;20185;-81
2022/03/05 01:41:56;;;;;;;17.93;10.70;;;;;;;;;;4978239;28;20579;-81
2022/03/05 01:44:22;;;;;;;16.60;11.20;;;;;;;;;;4978713;28;20177;-81
2022/03/05 01:46:49;;;;;;;13.77;10.90;;;;;;;;;;4978137;28;20265;-81
2022/03/05 01:49:15;;;;;;;15.80;11.60;;;;;;;;;;4960175;28;20592;-81
2022/03/05 01:51:41;;;;;;;18.00;11.43;;;;;;;;;;4961344;28;20191;-81
2022/03/05 01:54:08;;;;;;;17.07;10.73;;;;;;;;;;4978264;28;21039;-81
2022/03/05 01:56:35;;;;;;;15.80;10.07;;;;;;;;;;4977401;28;20196;-81
2022/03/05 01:59:01;;;;;;;16.70;11.40;;;;;;;;;;4978067;28;20184;-80
2022/03/05 02:01:28;;;;;;;16.30;10.97;;;;;;;;;;4978093;28;20657;-81
2022/03/05 02:03:55;;;;;;;16.37;11.17;;;;;;;;;;4977380;28;20207;-81
2022/03/05 02:06:21;;;;;;;15.70;10.63;;;;;;;;;;4977524;28;20675;-81
2022/03/05 02:08:47;;;;;;;17.07;10.23;;;;;;;;;;4960540;28;20650;-81
2022/03/05 02:11:13;;;;;;;13.13;10.57;;;;;;;;;;4960064;28;20176;-81
2022/03/05 02:13:41;;;;;;;11.90;9.83;;;;;;;;;;4959595;28;20737;-81
2022/03/05 02:16:07;;;;;;;15.00;10.53;;;;;;;;;;4960851;28;20566;-81
2022/03/05 02:18:33;;;;;;;14.47;10.03;;;;;;;;;;4977903;28;20216;-81
2022/03/05 02:21:00;;;;;;;14.77;9.93;;;;;;;;;;4960056;28;20651;-81
2022/03/05 02:23:26;;;;;;;14.13;9.90;;;;;;;;;;4977715;28;20551;-81
2022/03/05 02:25:56;;;;;;;15.47;10.10;;;;;;;;;;4974506;28;20199;-82
2022/03/05 02:28:22;;;;;;;11.97;9.53;;;;;;;;;;4977394;28;20244;-81
2022/03/05 02:30:49;;;;;;;11.43;9.43;;;;;;;;;;4978059;28;20172;-81
2022/03/05 02:33:15;;;;;;;17.03;9.53;;;;;;;;;;4977320;28;20215;-81
2022/03/05 02:35:43;;;;;;;14.60;10.17;;;;;;;;;;4977507;28;20208;-81
2022/03/05 02:38:11;;;;;;;12.80;9.50;;;;;;;;;;4959717;28;20201;-81
2022/03/05 02:40:37;;;;;;;12.93;9.43;;;;;;;;;;4960227;28;20275;-81
2022/03/05 02:43:03;;;;;;;13.97;9.57;;;;;;;;;;4977126;28;20205;-81
2022/03/05 02:45:29;;;;;;;14.63;9.17;;;;;;;;;;4976817;28;20219;-81
2022/03/05 02:47:55;;;;;;;12.43;8.83;;;;;;;;;;4960133;28;20568;-81
2022/03/05 02:50:21;;;;;;;11.70;9.30;;;;;;;;;;4977682;28;20212;-81
2022/03/05 02:52:47;;;;;;;12.70;8.83;;;;;;;;;;4977871;28;20587;-81
2022/03/05 02:55:13;;;;;;;14.07;9.40;;;;;;;;;;4976879;28;20220;-81
2022/03/05 02:57:39;;;;;;;11.97;8.60;;;;;;;;;;4977309;28;20212;-81
2022/03/05 03:00:05;;;;;;;12.63;8.53;;;;;;;;;;4977314;28;20180;-81
2022/03/05 03:02:31;;;;;;;11.70;8.50;;;;;;;;;;4976683;28;20184;-81
2022/03/05 03:04:57;;;;;;;9.83;8.07;;;;;;;;;;4976955;28;20192;-81
2022/03/05 03:07:23;;;;;;;9.80;7.87;;;;;;;;;;4977204;28;20573;-81
2022/03/05 03:09:53;;;;;;;10.50;8.73;;;;;;;;;;4977464;28;20192;-81
2022/03/05 03:12:19;;;;;;;12.10;8.10;;;;;;;;;;4980526;28;20188;-81
2022/03/05 03:14:45;;;;;;;10.70;8.27;;;;;;;;;;4960576;28;20616;-81
2022/03/05 03:17:11;;;;;;;12.43;7.90;;;;;;;;;;4986058;28;20204;-81
2022/03/05 03:19:37;;;;;;;11.47;7.67;;;;;;;;;;4978441;28;20179;-82
2022/03/05 03:22:03;;;;;;;11.07;7.80;;;;;;;;;;4980264;28;20259;-81
2022/03/05 03:24:29;;;;;;;9.90;7.47;;;;;;;;;;4963147;28;20196;-81
2022/03/05 03:26:55;;;;;;;11.03;8.13;;;;;;;;;;4980262;28;20204;-81
2022/03/05 03:29:21;;;;;;;11.57;7.10;;;;;;;;;;4956224;28;20184;-81
2022/03/05 03:31:47;;;;;;;10.13;7.20;;;;;;;;;;4962045;28;20172;-81
2022/03/05 03:34:13;;;;;;;11.33;7.13;;;;;;;;;;4960568;28;20241;-81
2022/03/05 03:36:39;;;;;;;9.93;7.37;;;;;;;;;;4975010;28;20642;-81
2022/03/05 03:39:05;;;;;;;8.63;7.10;;;;;;;;;;4980434;28;20555;-81
2022/03/05 03:41:31;;;;;;;8.20;6.83;;;;;;;;;;4963394;28;20172;-81
2022/03/05 03:43:57;;;;;;;8.40;6.57;;;;;;;;;;4980038;28;20176;-81
2022/03/05 03:46:23;;;;;;;8.60;7.37;;;;;;;;;;4970275;28;20201;-81
2022/03/05 03:48:49;;;;;;;8.37;6.77;;;;;;;;;;4976390;28;20264;-82
2022/03/05 03:51:15;;;;;;;10.50;6.93;;;;;;;;;;4977708;28;20177;-82
2022/03/05 03:53:41;;;;;;;9.40;7.27;;;;;;;;;;4978424;28;20182;-81
2022/03/05 03:56:07;;;;;;;8.47;6.87;;;;;;;;;;4960200;28;20690;-83
2022/03/05 03:58:33;;;;;;;10.07;7.67;;;;;;;;;;4976944;28;20200;-82
2022/03/05 04:00:59;;;;;;;10.70;7.23;;;;;;;;;;4977807;28;20184;-82
2022/03/05 04:03:25;;;;;;;10.70;6.87;;;;;;;;;;4944387;28;20180;-81
2022/03/05 04:05:52;;;;;;;9.17;7.33;;;;;;;;;;4980310;28;20196;-81
2022/03/05 04:11:04;;;;;;;12.73;7.60;;;;;;;;;;4982952;28;20606;-81
2022/03/05 04:13:30;;;;;;;10.83;7.03;;;;;;;;;;4982219;28;20200;-81
2022/03/05 04:15:56;;;;;;;10.07;6.60;;;;;;;;;;4981971;28;20208;-81
2022/03/05 04:18:22;;;;;;;10.43;7.47;;;;;;;;;;4983651;28;20193;-82
2022/03/05 04:20:48;;;;;;;9.37;6.80;;;;;;;;;;4982622;28;20732;-82
2022/03/05 04:23:14;;;;;;;10.53;7.20;;;;;;;;;;4971488;28;20184;-81
2022/03/05 04:25:40;;;;;;;9.23;7.50;;;;;;;;;;4989845;28;20200;-82
2022/03/05 04:28:06;;;;;;;10.17;6.73;;;;;;;;;;4984472;28;20651;-82
2022/03/05 04:30:32;;;;;;;10.13;7.20;;;;;;;;;;4978730;28;20199;-81
2022/03/05 04:32:58;;;;;;;8.43;7.03;;;;;;;;;;4982787;28;20184;-81
2022/03/05 04:35:24;;;;;;;11.23;7.83;;;;;;;;;;4966490;28;20271;-81
2022/03/05 04:37:54;;;;;;;10.33;7.23;;;;;;;;;;4983346;28;20204;-81
2022/03/05 04:40:20;;;;;;;9.00;7.03;;;;;;;;;;4983774;28;20255;-81
2022/03/05 04:42:46;;;;;;;9.57;7.40;;;;;;;;;;4986906;28;20195;-81
2022/03/05 04:45:13;;;;;;;8.43;7.00;;;;;;;;;;4986648;28;20291;-81
2022/03/05 04:47:40;;;;;;;9.50;7.27;;;;;;;;;;4988461;28;20188;-81
2022/03/05 04:50:07;;;;;;;10.80;6.70;;;;;;;;;;4969332;28;20211;-81
2022/03/05 04:52:33;;;;;;;10.87;7.20;;;;;;;;;;4983942;28;20184;-81
2022/03/05 04:54:59;;;;;;;8.70;7.67;;;;;;;;;;4983344;28;20200;-82
2022/03/05 04:57:25;;;;;;;10.37;7.27;;;;;;;;;;4980517;28;20205;-81
2022/03/05 04:59:51;;;;;;;11.13;7.63;;;;;;;;;;4962957;28;20210;-82
2022/03/05 05:02:17;;;;;;;11.37;6.93;;;;;;;;;;4970256;28;20189;-83
2022/03/05 05:04:43;;;;;;;10.63;7.00;;;;;;;;;;4980705;28;20184;-82
2022/03/05 05:07:09;;;;;;;10.97;7.40;;;;;;;;;;4978181;28;20188;-84
2022/03/05 05:09:35;;;;;;;11.83;8.30;;;;;;;;;;4978721;28;20191;-82
2022/03/05 05:12:01;;;;;;;10.87;7.70;;;;;;;;;;4979074;28;20567;-81
2022/03/05 05:14:27;;;;;;;13.70;8.33;;;;;;;;;;4963333;28;20207;-81
2022/03/05 05:16:53;;;;;;;11.20;7.53;;;;;;;;;;4979049;28;20208;-81
2022/03/05 05:19:27;;;;;;;11.60;7.83;;;;;;;;;;4979285;28;20185;-82
2022/03/05 05:21:54;;;;;;;11.20;8.10;;;;;;;;;;4981595;28;20172;-80
2022/03/05 05:24:20;;;;;;;9.83;7.23;;;;;;;;;;4982304;28;20195;-82
2022/03/05 05:26:46;;;;;;;10.27;8.07;;;;;;;;;;4962997;28;20590;-82
2022/03/05 05:29:12;;;;;;;9.37;7.13;;;;;;;;;;4981334;28;20185;-81
2022/03/05 05:31:38;;;;;;;9.70;7.43;;;;;;;;;;4980894;28;20184;-81
2022/03/05 05:34:04;;;;;;;11.70;8.37;;;;;;;;;;4981526;28;20239;-81
2022/03/05 05:36:30;;;;;;;10.90;7.43;;;;;;;;;;4962988;28;20291;-81
2022/03/05 05:38:56;;;;;;;12.97;8.37;;;;;;;;;;4963975;28;20599;-81
2022/03/05 05:41:22;;;;;;;12.90;8.07;;;;;;;;;;4982458;28;20173;-81
2022/03/05 05:43:48;;;;;;;12.53;8.53;;;;;;;;;;4964984;28;20169;-81
2022/03/05 05:46:14;;;;;;;13.57;8.63;;;;;;;;;;4981942;28;20188;-81
2022/03/05 05:48:40;;;;;;;12.13;8.80;;;;;;;;;;4982397;28;20187;-81
2022/03/05 05:51:07;;;;;;;14.07;8.80;;;;;;;;;;4982082;28;20185;-81
2022/03/05 05:53:33;;;;;;;12.70;8.67;;;;;;;;;;4982143;28;20644;-82
2022/03/05 05:55:59;;;;;;;11.60;8.67;;;;;;;;;;4964222;28;20212;-82
2022/03/05 05:58:25;;;;;;;11.37;8.30;;;;;;;;;;4961813;28;20259;-82
2022/03/05 06:00:51;;;;;;;15.60;9.50;;;;;;;;;;4978567;28;20208;-82
2022/03/05 06:03:17;;;;;;;12.23;8.60;;;;;;;;;;4979018;28;20640;-82
2022/03/05 06:05:43;;;;;;;12.60;9.13;;;;;;;;;;4978275;28;20204;-82
2022/03/05 06:08:09;;;;;;;13.00;8.97;;;;;;;;;;4978514;28;20176;-81
2022/03/05 06:10:35;;;;;;;11.13;8.23;;;;;;;;;;4978360;28;20635;-83
2022/03/05 06:13:01;;;;;;;12.80;8.80;;;;;;;;;;4978692;28;20664;-85
2022/03/05 06:15:28;;;;;;;12.73;9.00;;;;;;;;;;4978268;28;20263;-82
2022/03/05 06:17:54;;;;;;;13.47;8.47;;;;;;;;;;4980370;28;20566;-82
2022/03/05 06:20:20;;;;;;;14.03;9.60;;;;;;;;;;4978320;28;20622;-82
2022/03/05 06:22:46;;;;;;;12.33;8.73;;;;;;;;;;4978184;28;20184;-81
2022/03/05 06:25:12;;;;;;;14.73;9.50;;;;;;;;;;4975791;28;20200;-82
2022/03/05 06:27:39;;;;;;;13.13;8.97;;;;;;;;;;4977092;28;20215;-81
2022/03/05 06:30:05;;;;;;;15.10;9.97;;;;;;;;;;4953588;28;20695;-81
2022/03/05 06:32:31;;;;;;;12.80;9.63;;;;;;;;;;4972730;28;20193;-80
2022/03/05 06:34:57;;;;;;;16.63;10.07;;;;;;;;;;4954830;28;20242;-81
2022/03/05 06:37:23;;;;;;;14.63;9.57;;;;;;;;;;4977152;28;20702;-82
2022/03/05 06:39:50;;;;;;;18.87;10.20;;;;;;;;;;4977640;28;20239;-82
2022/03/05 06:42:16;;;;;;;14.00;9.73;;;;;;;;;;4977755;28;20180;-82
2022/03/05 06:44:42;;;;;;;17.27;9.93;;;;;;;;;;4987681;28;20176;-80
2022/03/05 06:47:08;;;;;;;12.83;9.27;;;;;;;;;;4972303;28;20180;-79
2022/03/05 06:49:34;;;;;;;16.57;10.03;;;;;;;;;;4980497;28;20189;-82
2022/03/05 06:52:00;;;;;;;16.10;10.17;;;;;;;;;;4964718;28;20565;-81
2022/03/05 06:54:26;;;;;;;16.43;9.93;;;;;;;;;;4983251;28;20208;-81
2022/03/05 06:56:52;;;;;;;15.97;10.27;;;;;;;;;;4961682;28;20208;-81
2022/03/05 06:59:18;;;;;;;16.60;10.87;;;;;;;;;;4966886;28;20193;-83
2022/03/05 07:01:44;;;;;;;17.37;10.43;;;;;;;;;;4964393;28;20184;-83
2022/03/05 07:04:10;;;;;;;17.40;11.60;;;;;;;;;;4971186;28;20211;-84
2022/03/05 07:06:39;;;;;;;19.23;11.27;;;;;;;;;;4972534;28;20204;-80
2022/03/05 07:09:06;;;;;;;15.47;10.77;;;;;;;;;;4969397;28;20183;-82
2022/03/05 07:11:32;;;;;;;18.30;12.03;;;;;;;;;;4973949;28;20240;-83
2022/03/05 07:13:59;;;;;;;15.70;10.43;;;;;;;;;;4980490;28;20211;-82
2022/03/05 07:16:25;;;;;;;25.20;11.33;;;;;;;;;;4968625;28;20573;-82
2022/03/05 07:18:51;;;;;;;16.70;11.43;;;;;;;;;;4974229;28;20184;-82
2022/03/05 07:21:17;;;;;;;18.80;12.43;;;;;;;;;;4981524;28;20207;-82
2022/03/05 07:23:43;;;;;;;18.33;12.30;;;;;;;;;;4981039;28;20263;-82
2022/03/05 07:26:09;;;;;;;15.53;11.47;;;;;;;;;;4963629;28;20235;-82
2022/03/05 07:28:35;;;;;;;23.87;13.10;;;;;;;;;;4980373;28;20273;-82
2022/03/05 07:31:01;;;;;;;18.37;12.23;;;;;;;;;;4981834;28;20185;-81
2022/03/05 07:33:27;;;;;;;23.60;13.47;;;;;;;;;;4963422;28;20199;-82
2022/03/05 07:35:54;;;;;;;20.80;12.60;;;;;;;;;;4980854;28;20204;-82
2022/03/05 07:38:20;;;;;;;18.90;12.67;;;;;;;;;;4980810;28;20204;-82
2022/03/05 07:40:46;;;;;;;23.27;13.87;;;;;;;;;;4979993;28;20172;-84
2022/03/05 07:43:12;;;;;;;21.00;13.47;;;;;;;;;;4962708;28;20271;-81
2022/03/05 07:45:38;;;;;;;22.60;13.90;;;;;;;;;;4976012;28;20686;-83
2022/03/05 07:48:05;;;;;;;23.80;13.80;;;;;;;;;;4969864;28;20185;-82
2022/03/05 07:50:31;;;;;;;21.37;13.80;;;;;;;;;;4977165;28;20611;-82
2022/03/05 07:52:57;;;;;;;27.70;14.70;;;;;;;;;;4979900;28;20207;-83
2022/03/05 07:55:23;;;;;;;23.00;14.30;;;;;;;;;;4982255;28;20241;-84
2022/03/05 07:57:49;;;;;;;25.23;14.03;;;;;;;;;;4981464;28;20744;-83
2022/03/05 08:00:15;;;;;;;26.00;14.50;;;;;;;;;;4980550;28;20236;-84
2022/03/05 08:02:41;;;;;;;26.03;14.17;;;;;;;;;;4963612;28;20231;-83
2022/03/05 08:05:08;;;;;;;24.27;14.20;;;;;;;;;;4981551;28;20196;-82
2022/03/05 08:07:34;;;;;;;27.70;14.63;;;;;;;;;;4980743;28;20594;-82
2022/03/05 08:10:00;;;;;;;24.67;14.80;;;;;;;;;;4979880;28;20652;-81
2022/03/05 08:12:26;;;;;;;27.93;15.57;;;;;;;;;;4980097;28;20655;-82
2022/03/05 08:14:52;;;;;;;25.17;15.07;;;;;;;;;;4978413;28;20176;-83
2022/03/05 08:17:18;;;;;;;23.70;14.40;;;;;;;;;;4979474;28;20204;-82
2022/03/05 08:19:44;;;;;;;30.73;16.07;;;;;;;;;;4979516;28;20183;-83
2022/03/05 08:22:10;;;;;;;24.07;15.07;;;;;;;;;;4984032;28;20600;-82
2022/03/05 08:24:36;;;;;;;25.87;15.40;;;;;;;;;;4980883;28;20180;-82
2022/03/05 08:27:02;;;;;;;27.33;16.80;;;;;;;;;;4978695;28;20204;-82
2022/03/05 08:29:28;;;;;;;28.73;14.97;;;;;;;;;;4978419;28;20656;-82
2022/03/05 08:31:54;;;;;;;26.43;16.20;;;;;;;;;;4979143;28;20193;-84
2022/03/05 08:34:20;;;;;;;24.87;15.30;;;;;;;;;;4978652;28;20662;-82
2022/03/05 08:36:47;;;;;;;25.27;14.97;;;;;;;;;;4978488;28;20243;-82
2022/03/05 08:39:13;;;;;;;27.30;16.57;;;;;;;;;;4977750;28;20543;-82
2022/03/05 08:41:39;;;;;;;24.73;15.93;;;;;;;;;;4975508;28;20199;-83
2022/03/05 08:44:05;;;;;;;30.93;16.03;;;;;;;;;;4950050;28;20248;-82
2022/03/05 08:46:31;;;;;;;25.27;15.80;;;;;;;;;;4960653;28;20577;-81
2022/03/05 08:48:57;;;;;;;25.23;15.37;;;;;;;;;;4978560;28;20182;-82
2022/03/05 08:51:23;;;;;;;32.20;16.90;;;;;;;;;;4978639;28;20189;-82
2022/03/05 08:53:49;;;;;;;26.87;16.77;;;;;;;;;;4961373;28;20191;-81
2022/03/05 08:56:15;;;;;;;27.60;16.37;;;;;;;;;;4978368;28;20199;-82
2022/03/05 08:58:41;;;;;;;25.27;15.17;;;;;;;;;;4978329;28;20228;-82
2022/03/05 09:01:08;;;;;;;29.43;15.70;;;;;;;;;;4977837;28;20633;-82
2022/03/05 09:03:34;;;;;;;26.77;14.57;;;;;;;;;;4960675;28;20186;-81
2022/03/05 09:06:01;;;;;;;26.33;15.80;;;;;;;;;;4978007;28;20201;-81
2022/03/05 09:08:27;;;;;;;27.70;16.13;;;;;;;;;;4977870;28;20617;-82
2022/03/05 09:10:53;;;;;;;25.23;15.20;;;;;;;;;;4977853;28;20224;-82
2022/03/05 09:13:19;;;;;;;27.13;15.67;;;;;;;;;;4977722;28;20192;-82
2022/03/05 09:15:45;;;;;;;24.73;16.40;;;;;;;;;;4976771;28;20232;-83
2022/03/05 09:18:12;;;;;;;24.70;15.53;;;;;;;;;;4972227;28;20202;-83
2022/03/05 09:20:43;;;;;;;28.13;16.40;;;;;;;;;;4971869;28;20207;-82
2022/03/05 09:23:09;;;;;;;23.77;15.03;;;;;;;;;;4961023;28;20166;-83
2022/03/05 09:25:35;;;;;;;23.70;15.47;;;;;;;;;;4959071;28;20559;-82
2022/03/05 09:28:01;;;;;;;23.73;15.10;;;;;;;;;;4967705;28;20635;-81
2022/03/05 09:30:27;;;;;;;25.27;14.83;;;;;;;;;;4972166;28;20588;-82
2022/03/05 09:32:53;;;;;;;25.03;14.47;;;;;;;;;;4969651;28;20704;-82
2022/03/05 09:35:19;;;;;;;24.80;15.00;;;;;;;;;;4977739;28;20212;-82
2022/03/05 09:37:45;;;;;;;27.80;14.07;;;;;;;;;;4977731;28;20205;-82
2022/03/05 09:40:12;;;;;;;23.37;14.97;;;;;;;;;;4977331;28;20184;-82
2022/03/05 09:42:44;;;;;;;23.47;15.60;;;;;;;;;;4977996;28;20645;-82
2022/03/05 09:45:11;;;;;;;22.53;14.40;;;;;;;;;;4960297;28;20280;-82
2022/03/05 09:47:38;;;;;;;20.80;13.53;;;;;;;;;;4977693;28;20188;-82
2022/03/05 09:50:05;;;;;;;19.17;13.57;;;;;;;;;;4977338;28;20656;-82
2022/03/05 09:52:32;;;;;;;18.77;12.87;;;;;;;;;;4976855;28;20208;-82
2022/03/05 09:54:58;;;;;;;23.03;13.90;;;;;;;;;;4959355;28;20206;-82
2022/03/05 09:57:24;;;;;;;21.53;13.87;;;;;;;;;;4959356;28;20234;-82
2022/03/05 09:59:50;;;;;;;24.37;14.93;;;;;;;;;;4976397;28;20201;-82
2022/03/05 10:02:17;;;;;;;23.43;13.73;;;;;;;;;;4976565;28;20214;-82
2022/03/05 10:04:43;;;;;;;23.87;13.67;;;;;;;;;;4977140;28;20275;-82
2022/03/05 10:07:17;;;;;;;24.33;14.23;;;;;;;;;;4959356;28;20209;-83
2022/03/05 10:09:44;;;;;;;20.33;13.67;;;;;;;;;;4976756;28;20195;-82
2022/03/05 10:12:29;;;;;;;22.67;13.53;;;;;;;;;;4960193;28;20184;-82
2022/03/05 10:15:05;;;;;;;25.33;15.07;;;;;;;;;;4977500;28;20528;-82
2022/03/05 10:17:44;;;;;;;20.63;13.63;;;;;;;;;;4944617;28;20206;-82
2022/03/05 10:20:10;;;;;;;24.77;14.23;;;;;;;;;;4966552;28;20216;-82
2022/03/05 10:22:36;;;;;;;24.27;15.07;;;;;;;;;;4976470;28;20181;-82
2022/03/05 10:25:03;;;;;;;21.60;13.37;;;;;;;;;;4950738;28;20583;-81
2022/03/05 10:27:30;;;;;;;19.07;13.37;;;;;;;;;;4982574;28;20193;-82
2022/03/05 10:29:56;;;;;;;23.57;14.37;;;;;;;;;;4971235;28;20181;-82
2022/03/05 10:32:22;;;;;;;22.00;13.77;;;;;;;;;;4968565;28;20186;-82
2022/03/05 10:34:49;;;;;;;20.17;14.37;;;;;;;;;;4957833;28;20189;-82
2022/03/05 10:37:16;;;;;;;19.83;13.87;;;;;;;;;;4950148;28;20213;-82
2022/03/05 10:39:42;;;;;;;20.47;13.17;;;;;;;;;;4962855;28;20230;-83
2022/03/05 10:42:18;;;;;;;21.30;13.80;;;;;;;;;;4944058;28;20212;-83
2022/03/05 10:44:59;;;;;;;23.40;14.60;;;;;;;;;;4963359;28;20186;-83
2022/03/05 10:47:25;;;;;;;22.53;14.67;;;;;;;;;;4960834;28;20182;-83
2022/03/05 10:49:51;;;;;;;23.87;13.93;;;;;;;;;;4967623;28;20198;-82
2022/03/05 10:52:17;;;;;;;19.70;13.87;;;;;;;;;;4960670;28;20182;-82
2022/03/05 10:54:44;;;;;;;20.10;14.13;;;;;;;;;;4971321;28;20204;-81
2022/03/05 10:57:13;;;;;;;21.23;14.27;;;;;;;;;;4976124;28;20235;-82
2022/03/05 10:59:41;;;;;;;22.00;14.50;;;;;;;;;;4976586;28;20194;-82
2022/03/05 11:02:07;;;;;;;20.87;13.37;;;;;;;;;;4958276;28;20194;-84
2022/03/05 11:04:35;;;;;;;19.17;13.87;;;;;;;;;;4971317;28;20185;-82
2022/03/05 11:07:01;;;;;;;20.43;14.37;;;;;;;;;;4948279;28;20212;-82
2022/03/05 11:09:27;;;;;;;20.00;13.73;;;;;;;;;;4962718;28;20188;-83
2022/03/05 11:11:54;;;;;;;19.10;13.47;;;;;;;;;;4977292;28;20544;-83
2022/03/05 11:14:20;;;;;;;18.30;13.70;;;;;;;;;;4978090;28;20218;-84
2022/03/05 11:16:46;;;;;;;18.77;14.70;;;;;;;;;;4978887;28;20271;-84
2022/03/05 11:19:14;;;;;;;20.00;14.20;;;;;;;;;;4958218;28;20227;-83
2022/03/05 11:21:40;;;;;;;20.60;13.93;;;;;;;;;;4962571;28;20208;-82
2022/03/05 11:24:06;;;;;;;20.63;14.27;;;;;;;;;;4946913;28;20180;-85
2022/03/05 11:26:37;;;;;;;20.23;14.30;;;;;;;;;;4971138;28;20205;-84
2022/03/05 11:29:03;;;;;;;21.20;15.03;;;;;;;;;;4941051;28;20174;-83
2022/03/05 11:31:33;;;;;;;19.67;13.70;;;;;;;;;;4960206;28;20189;-83
2022/03/05 11:34:12;;;;;;;21.87;15.17;;;;;;;;;;4980128;28;20296;-84
2022/03/05 11:36:39;;;;;;;21.87;14.70;;;;;;;;;;4975284;28;20212;-85
2022/03/05 11:39:15;;;;;;;17.83;13.53;;;;;;;;;;4983816;28;20180;-84
2022/03/05 11:42:03;;;;;;;21.47;15.10;;;;;;;;;;4981486;28;20164;-85
2022/03/05 11:44:43;;;;;;;23.00;17.10;;;;;;;;;;4966486;28;20273;-84
2022/03/05 11:47:36;;;;;;;22.70;14.40;;;;;;;;;;4966212;28;20561;-84
2022/03/05 11:50:07;;;;;;;18.77;13.73;;;;;;;;;;4981861;28;20271;-84
2022/03/05 11:52:39;;;;;;;19.20;13.33;;;;;;;;;;4983266;28;20191;-84
2022/03/05 11:55:11;;;;;;;19.70;14.33;;;;;;;;;;4965556;28;20708;-85
2022/03/05 11:57:42;;;;;;;19.07;13.90;;;;;;;;;;4983988;28;20210;-84
2022/03/05 12:00:08;;;;;;;19.67;14.57;;;;;;;;;;4994757;28;20182;-84
2022/03/05 12:02:38;;;;;;;22.20;14.07;;;;;;;;;;4966842;28;20181;-84
2022/03/05 12:05:04;;;;;;;22.33;14.67;;;;;;;;;;4945060;28;20202;-85
2022/03/05 12:07:37;;;;;;;19.60;14.13;;;;;;;;;;4983395;28;20563;-84
2022/03/05 12:10:14;;;;;;;18.20;13.00;;;;;;;;;;4992291;28;20186;-85
2022/03/05 12:12:53;;;;;;;17.17;13.20;;;;;;;;;;4995684;28;20180;-84
2022/03/05 12:15:24;;;;;;;20.87;13.73;;;;;;;;;;4991275;28;20212;-85
2022/03/05 12:17:51;;;;;;;21.53;15.20;;;;;;;;;;4944300;28;20202;-84
2022/03/05 12:20:21;;;;;;;19.37;13.30;;;;;;;;;;4986428;28;20200;-84
2022/03/05 12:22:53;;;;;;;25.63;18.80;;;;;;;;;;4992271;28;20647;-85
2022/03/05 12:25:19;;;;;;;20.50;15.03;;;;;;;;;;4982296;28;20232;-85
2022/03/05 12:27:53;;;;;;;18.83;13.87;;;;;;;;;;5012913;23;20232;-84
2022/03/05 12:30:29;;;;;;;19.20;12.93;;;;;;;;;;4985188;28;20178;-84
2022/03/05 12:33:07;;;;;;;19.87;13.17;;;;;;;;;;5005891;28;20666;-84
2022/03/05 12:35:36;;;;;;;16.97;13.47;;;;;;;;;;5004524;28;20169;-84
2022/03/05 12:38:12;;;;;;;16.93;13.60;;;;;;;;;;5006350;28;20622;-84
2022/03/05 12:40:40;;;;;;;18.37;12.67;;;;;;;;;;5004587;28;20206;-84
2022/03/05 12:49:42;;;;;;;18.23;12.50;;;;;;;;;;4956045;28;20251;-84
2022/03/05 12:55:55;;;;;;;15.77;12.53;;;;;;;;;;4907197;29;20183;-84
2022/03/05 13:04:55;;;;;;;;;;;;;;;;;;;;;
2022/03/05 13:07:49;;;;;;;13.57;11.67;;;;;;;;;;4944067;29;20288;-84
2022/03/05 13:10:18;;;;;;;13.67;11.20;;;;;;;;;;4943620;29;20526;-84
2022/03/05 13:13:00;;;;;;;14.10;11.97;;;;;;;;;;4960813;28;20193;-84
2022/03/05 13:18:28;;;;;;;16.47;13.37;;;;;;;;;;4980382;28;20645;-84
2022/03/05 13:21:09;;;;;;;12.70;11.10;;;;;;;;;;4986011;28;20186;-84
2022/03/05 13:23:44;;;;;;;12.33;10.37;;;;;;;;;;4994408;28;20209;-84
2022/03/05 13:26:17;;;;;;;11.87;10.20;;;;;;;;;;4980770;28;20280;-84
2022/03/05 13:29:03;;;;;;;;;;;;;;;;;;;;;
2022/03/05 13:32:29;;;;;;;21.93;16.40;;;;;;;;;;4980612;28;20245;-84
2022/03/05 13:34:26;;;;;;;14.50;11.43;;;;;;;;;;4969106;28;20327;-84
2022/03/05 13:36:55;;;;;;;12.67;11.03;;;;;;;;;;4966383;28;20215;-84
2022/03/05 13:39:25;;;;;;;13.33;10.00;;;;;;;;;;4982054;28;20275;-84
2022/03/05 13:42:46;;;;;;;13.93;10.10;;;;;;;;;;4991639;28;20266;-85
2022/03/05 13:45:21;;;;;;;12.40;11.07;;;;;;;;;;4904365;29;20190;-85
2022/03/05 13:47:56;;;;;;;11.83;9.93;;;;;;;;;;4881817;29;20225;-85
2022/03/05 13:53:21;;;;;;;10.57;9.47;;;;;;;;;;5005809;28;20214;-87
2022/03/05 13:56:41;;;;;;;13.53;10.17;;;;;;;;;;4989567;28;20194;-86
2022/03/05 13:59:28;;;;;;;10.90;9.50;;;;;;;;;;4996752;28;20272;-86
2022/03/05 14:01:57;;;;;;;12.17;9.30;;;;;;;;;;4984832;28;20250;-86
2022/03/05 14:05:15;;;;;;;13.93;9.67;;;;;;;;;;4986552;28;20181;-86
2022/03/05 14:07:28;;;;;;;9.93;8.83;;;;;;;;;;4991961;28;20624;-86
2022/03/05 14:10:07;;;;;;;14.77;9.47;;;;;;;;;;4986516;28;20187;-84
2022/03/05 14:12:36;;;;;;;11.43;9.30;;;;;;;;;;4992855;28;20546;-86
2022/03/05 14:15:28;;;;;;;14.00;9.97;;;;;;;;;;4976118;28;20178;-86
2022/03/05 14:18:03;;;;;;;10.73;8.80;;;;;;;;;;4979149;28;20216;-86
2022/03/05 14:20:51;;;;;;;10.60;8.30;;;;;;;;;;5005385;28;20168;-86
2022/03/05 14:27:22;;;;;;;;;;;;;;;;;;;;;
2022/03/05 14:30:23;;;;;;;9.80;7.77;;;;;;;;;;4922280;29;20256;-85
2022/03/05 14:32:49;;;;;;;9.17;7.73;;;;;;;;;;4934058;28;20189;-85
2022/03/05 14:35:17;;;;;;;10.13;8.20;;;;;;;;;;5001326;28;20213;-84
2022/03/05 14:37:44;;;;;;;9.67;7.90;;;;;;;;;;5002454;28;20211;-83
2022/03/05 14:40:13;;;;;;;10.60;7.43;;;;;;;;;;4981480;28;20180;-83
2022/03/05 14:42:39;;;;;;;9.17;7.47;;;;;;;;;;4991316;28;20260;-83
2022/03/05 14:45:06;;;;;;;8.70;6.23;;;;;;;;;;5001655;28;20184;-83
2022/03/05 14:47:32;;;;;;;8.23;6.83;;;;;;;;;;5002642;28;20213;-84
2022/03/05 14:49:59;;;;;;;7.93;7.07;;;;;;;;;;5002170;28;20180;-82
2022/03/05 14:52:25;;;;;;;7.57;6.50;;;;;;;;;;4963755;28;20185;-83
2022/03/05 14:54:51;;;;;;;7.10;6.40;;;;;;;;;;4980617;28;20185;-83
2022/03/05 15:01:23;;;;;;;7.07;6.30;;;;;;;;;;4845786;29;20231;-82
2022/03/05 15:04:23;;;;;;;8.97;6.30;;;;;;;;;;4848180;29;20186;-81
2022/03/05 15:17:19;;;;;;;8.03;6.73;;;;;;;;;;4895159;29;20207;-82